Time;durP1;ratioP1;P1;durP2;ratioP2;P2;SDS_P1;SDS_P2;PMS_P1;PMS_P2;Temp;Humidity;BMP_temperature;BMP_pressure;BME280_temperature;BME280_humidity;BME280_pressure;Samples;Min_cycle;Max_cycle;Signal;HPM_P1;HPM_P2
2023/07/24 00:00:06;;;;;;;;;;;22.20;63.30;;;;;;10374979;28;94344;-65
2023/07/24 00:05:09;;;;;;;;;;;22.20;63.50;;;;;;10374287;28;93498;-66
2023/07/24 00:10:11;;;;;;;;;;;22.20;63.30;;;;;;10374466;28;93434;-66
2023/07/24 00:15:13;;;;;;;;;;;22.20;63.50;;;;;;10372837;28;94396;-66
2023/07/24 00:20:15;;;;;;;;;;;22.20;63.40;;;;;;10355628;28;93440;-62
2023/07/24 00:25:16;;;;;;;;;;;22.20;63.50;;;;;;10375094;28;93881;-64
2023/07/24 00:30:18;;;;;;;;;;;22.20;63.70;;;;;;10355647;28;94104;-65
2023/07/24 00:35:20;;;;;;;;;;;22.10;63.50;;;;;;10372898;28;93762;-65
2023/07/24 00:40:21;;;;;;;;;;;22.10;63.60;;;;;;10353225;28;96837;-66
2023/07/24 00:45:23;;;;;;;;;;;22.10;63.70;;;;;;10355889;28;94690;-65
2023/07/24 00:50:26;;;;;;;;;;;22.10;63.80;;;;;;10371964;28;94575;-65
2023/07/24 00:55:28;;;;;;;;;;;22.10;63.90;;;;;;10355836;28;94814;-66
2023/07/24 01:00:30;;;;;;;;;;;22.10;63.90;;;;;;10371247;28;93496;-65
2023/07/24 01:05:32;;;;;;;;;;;22.10;64.00;;;;;;10372284;28;93951;-65
2023/07/24 01:10:34;;;;;;;;;;;22.10;63.90;;;;;;10371424;28;93456;-65
2023/07/24 01:15:43;;;;;;;;;;;22.00;64.00;;;;;;10354930;28;92775;-65
2023/07/24 01:20:50;;;;;;;;;;;22.00;63.90;;;;;;10372426;28;93446;-65
2023/07/24 01:25:55;;;;;;;;;;;22.00;64.00;;;;;;10372100;28;93453;-65
2023/07/24 01:30:57;;;;;;;;;;;22.00;64.10;;;;;;10369258;28;95994;-66
2023/07/24 01:36:00;;;;;;;;;;;22.00;64.00;;;;;;10371621;28;94601;-65
2023/07/24 01:41:05;;;;;;;;;;;22.00;63.90;;;;;;10371731;28;93471;-66
2023/07/24 01:46:08;;;;;;;;;;;21.90;64.00;;;;;;10371130;28;94579;-66
2023/07/24 01:51:10;;;;;;;;;;;21.90;64.00;;;;;;10371316;28;93742;-65
2023/07/24 01:56:12;;;;;;;;;;;21.90;64.00;;;;;;10352808;28;93006;-66
2023/07/24 02:01:14;;;;;;;;;;;21.90;64.00;;;;;;10371054;28;93384;-66
2023/07/24 02:06:16;;;;;;;;;;;21.90;63.90;;;;;;10372098;28;93682;-65
2023/07/24 02:11:18;;;;;;;;;;;21.90;64.00;;;;;;10369498;28;93445;-65
2023/07/24 02:16:20;;;;;;;;;;;21.90;63.90;;;;;;10370943;28;93210;-66
2023/07/24 02:21:22;;;;;;;;;;;21.90;64.00;;;;;;10367394;28;96112;-66
2023/07/24 02:26:23;;;;;;;;;;;21.90;63.80;;;;;;10370090;28;94444;-66
2023/07/24 02:31:25;;;;;;;;;;;21.90;63.70;;;;;;10370227;28;94444;-65
2023/07/24 02:36:27;;;;;;;;;;;21.90;63.60;;;;;;10369223;28;93627;-66
2023/07/24 02:41:29;;;;;;;;;;;21.90;63.80;;;;;;10369038;28;93469;-65
2023/07/24 02:46:31;;;;;;;;;;;21.90;63.60;;;;;;10369274;28;92882;-64
2023/07/24 02:51:33;;;;;;;;;;;21.90;63.60;;;;;;10369043;28;95132;-65
2023/07/24 02:56:35;;;;;;;;;;;21.90;63.70;;;;;;10351960;28;93221;-66
2023/07/24 03:01:37;;;;;;;;;;;21.90;63.50;;;;;;10368844;28;93814;-66
2023/07/24 03:06:39;;;;;;;;;;;22.00;63.50;;;;;;10350918;28;94233;-63
2023/07/24 03:11:41;;;;;;;;;;;22.00;63.60;;;;;;10366989;28;95830;-64
2023/07/24 03:16:43;;;;;;;;;;;22.00;63.60;;;;;;10374119;28;93408;-64
2023/07/24 03:21:45;;;;;;;;;;;22.00;63.40;;;;;;10375009;28;93467;-64
2023/07/24 03:26:47;;;;;;;;;;;22.00;63.40;;;;;;10376339;28;94506;-64
2023/07/24 03:31:49;;;;;;;;;;;22.00;63.50;;;;;;10375335;28;94186;-64
2023/07/24 03:36:51;;;;;;;;;;;22.00;63.40;;;;;;10357510;28;93658;-64
2023/07/24 03:41:53;;;;;;;;;;;22.00;63.50;;;;;;10375184;28;93461;-64
2023/07/24 03:46:55;;;;;;;;;;;22.00;63.30;;;;;;10375769;28;92671;-64
2023/07/24 03:51:56;;;;;;;;;;;22.00;63.30;;;;;;10374390;28;94487;-65
2023/07/24 03:56:58;;;;;;;;;;;22.00;63.30;;;;;;10375482;28;93015;-66
2023/07/24 04:02:00;;;;;;;;;;;22.00;63.40;;;;;;10371664;28;95765;-65
2023/07/24 04:07:02;;;;;;;;;;;22.00;63.30;;;;;;10373531;28;93829;-64
2023/07/24 04:12:04;;;;;;;;;;;22.00;63.30;;;;;;10374545;28;93427;-65
2023/07/24 04:17:06;;;;;;;;;;;22.00;63.20;;;;;;10375536;28;92632;-65
2023/07/24 04:22:08;;;;;;;;;;;22.00;63.10;;;;;;10373598;28;93775;-65
2023/07/24 04:27:10;;;;;;;;;;;22.00;63.30;;;;;;10372727;28;93414;-64
2023/07/24 04:32:12;;;;;;;;;;;22.00;63.10;;;;;;10373582;28;93462;-65
2023/07/24 04:37:14;;;;;;;;;;;22.00;63.10;;;;;;10373268;28;93319;-65
2023/07/24 04:42:15;;;;;;;;;;;22.00;63.10;;;;;;10374178;28;94489;-65
2023/07/24 04:47:17;;;;;;;;;;;22.00;63.10;;;;;;10769655;22;94017;-62
2023/07/24 04:52:19;;;;;;;;;;;22.10;63.20;;;;;;10322596;28;97461;-62
2023/07/24 04:57:21;;;;;;;;;;;22.00;63.10;;;;;;10332257;28;94529;-62
2023/07/24 05:02:22;;;;;;;;;;;22.10;63.10;;;;;;10327974;28;94096;-63
2023/07/24 05:07:24;;;;;;;;;;;22.10;63.10;;;;;;10329563;28;93570;-63
2023/07/24 05:12:26;;;;;;;;;;;22.10;63.10;;;;;;10332416;28;94431;-63
2023/07/24 05:17:28;;;;;;;;;;;22.10;63.00;;;;;;10313583;28;93452;-63
2023/07/24 05:22:30;;;;;;;;;;;22.10;63.00;;;;;;10331645;28;94995;-63
2023/07/24 05:27:31;;;;;;;;;;;22.10;63.00;;;;;;10332092;28;93655;-64
2023/07/24 05:32:33;;;;;;;;;;;22.10;63.00;;;;;;10330760;28;94452;-63
2023/07/24 05:37:35;;;;;;;;;;;22.10;63.00;;;;;;10330303;28;94471;-63
2023/07/24 05:42:41;;;;;;;;;;;22.10;63.00;;;;;;10327364;28;95901;-63
2023/07/24 05:47:43;;;;;;;;;;;22.10;63.00;;;;;;10329705;28;94204;-63
2023/07/24 05:52:44;;;;;;;;;;;22.10;62.90;;;;;;10329960;28;94472;-63
2023/07/24 05:57:46;;;;;;;;;;;22.00;62.90;;;;;;10328946;28;94457;-63
2023/07/24 06:02:48;;;;;;;;;;;22.00;62.90;;;;;;10328464;28;93521;-62
2023/07/24 06:07:50;;;;;;;;;;;22.10;63.10;;;;;;10329379;28;93427;-63
2023/07/24 06:12:51;;;;;;;;;;;22.10;63.00;;;;;;10328676;28;93484;-63
2023/07/24 06:17:53;;;;;;;;;;;22.10;63.30;;;;;;10330026;28;93783;-63
2023/07/24 06:22:55;;;;;;;;;;;22.00;63.20;;;;;;10311169;28;94448;-63
2023/07/24 06:27:57;;;;;;;;;;;22.00;63.30;;;;;;10327197;28;92933;-63
2023/07/24 06:32:59;;;;;;;;;;;22.00;63.40;;;;;;10308426;28;98944;-63
2023/07/24 06:38:01;;;;;;;;;;;22.00;63.40;;;;;;10328688;28;94479;-63
2023/07/24 06:43:03;;;;;;;;;;;22.00;63.50;;;;;;10328178;28;93478;-63
2023/07/24 06:48:05;;;;;;;;;;;22.00;63.50;;;;;;10325368;28;93510;-63
2023/07/24 06:53:06;;;;;;;;;;;22.00;63.50;;;;;;10328432;28;94380;-63
2023/07/24 06:58:08;;;;;;;;;;;21.90;63.50;;;;;;10328151;28;93450;-63
2023/07/24 07:03:10;;;;;;;;;;;21.90;63.50;;;;;;10326272;28;93472;-63
2023/07/24 07:08:11;;;;;;;;;;;21.90;63.50;;;;;;10328119;28;93250;-63
2023/07/24 07:13:13;;;;;;;;;;;21.90;63.50;;;;;;10325611;28;93336;-63
2023/07/24 07:18:16;;;;;;;;;;;21.90;63.60;;;;;;10326008;28;93463;-62
2023/07/24 07:23:19;;;;;;;;;;;21.90;63.80;;;;;;10325132;28;97263;-62
2023/07/24 07:28:21;;;;;;;;;;;22.00;63.80;;;;;;10328189;28;94048;-62
2023/07/24 07:33:23;;;;;;;;;;;22.00;63.80;;;;;;10326864;28;94412;-63
2023/07/24 07:38:25;;;;;;;;;;;22.10;64.00;;;;;;10307572;28;93354;-63
2023/07/24 07:43:27;;;;;;;;;;;22.00;63.90;;;;;;10326374;28;92961;-62
2023/07/24 07:48:29;;;;;;;;;;;22.10;64.00;;;;;;10325733;28;94475;-62
2023/07/24 07:53:31;;;;;;;;;;;22.10;64.00;;;;;;10326248;28;92535;-63
2023/07/24 07:58:33;;;;;;;;;;;22.00;64.10;;;;;;10326006;28;92856;-62
2023/07/24 08:03:35;;;;;;;;;;;22.10;64.30;;;;;;10314544;28;94750;-62
2023/07/24 08:08:36;;;;;;;;;;;22.10;64.50;;;;;;10332834;28;94609;-62
2023/07/24 08:13:38;;;;;;;;;;;22.10;64.60;;;;;;10329693;28;96759;-62
2023/07/24 08:18:40;;;;;;;;;;;22.10;64.50;;;;;;10331795;28;94032;-63
2023/07/24 08:23:42;;;;;;;;;;;22.20;64.70;;;;;;10331504;28;93353;-62
2023/07/24 08:28:44;;;;;;;;;;;22.10;64.60;;;;;;10331531;28;94399;-62
2023/07/24 08:33:46;;;;;;;;;;;22.20;65.20;;;;;;10331169;28;93314;-60
2023/07/24 08:38:47;;;;;;;;;;;22.20;65.10;;;;;;10313354;28;93550;-59
2023/07/24 08:43:51;;;;;;;;;;;22.20;65.00;;;;;;10312874;28;93890;-60
2023/07/24 08:48:54;;;;;;;;;;;22.30;65.10;;;;;;10331492;28;93704;-60
2023/07/24 08:53:55;;;;;;;;;;;22.30;64.90;;;;;;10330757;28;93474;-60
2023/07/24 08:58:57;;;;;;;;;;;22.30;64.90;;;;;;10330628;28;93417;-60
2023/07/24 09:03:59;;;;;;;;;;;22.30;64.70;;;;;;10309721;28;95806;-60
2023/07/24 09:09:01;;;;;;;;;;;22.30;64.50;;;;;;10331835;28;94339;-61
2023/07/24 09:14:02;;;;;;;;;;;22.30;64.40;;;;;;10329491;28;94389;-60
2023/07/24 09:19:18;;;;;;;;;;;22.30;64.20;;;;;;10330596;28;94491;-60
2023/07/24 09:24:27;;;;;;;;;;;22.30;64.20;;;;;;10329496;28;93583;-60
2023/07/24 09:29:32;;;;;;;;;;;22.30;64.00;;;;;;10331010;28;94534;-60
2023/07/24 09:34:34;;;;;;;;;;;22.30;64.30;;;;;;10329745;28;94192;-60
2023/07/24 09:39:39;;;;;;;;;;;22.30;64.10;;;;;;10311812;28;113252;-60
2023/07/24 09:44:41;;;;;;;;;;;22.40;64.10;;;;;;10329375;28;93629;-60
2023/07/24 09:49:43;;;;;;;;;;;22.40;64.10;;;;;;10310017;28;93500;-60
2023/07/24 09:54:51;;;;;;;;;;;22.40;63.90;;;;;;10326261;28;96390;-60
2023/07/24 09:59:54;;;;;;;;;;;22.40;63.90;;;;;;10328601;28;93406;-60
2023/07/24 10:04:56;;;;;;;;;;;22.40;64.00;;;;;;10310455;28;93467;-59
2023/07/24 10:09:58;;;;;;;;;;;22.30;63.90;;;;;;10310159;28;94435;-61
2023/07/24 10:15:01;;;;;;;;;;;22.40;64.00;;;;;;10328199;28;94401;-58
2023/07/24 10:20:07;;;;;;;;;;;22.40;64.20;;;;;;10309891;28;94460;-59
2023/07/24 10:25:09;;;;;;;;;;;22.50;64.20;;;;;;10326868;28;94183;-62
2023/07/24 10:30:11;;;;;;;;;;;22.50;64.50;;;;;;10328563;28;92733;-62
2023/07/24 10:35:38;;;;;;;;;;;22.60;66.10;;;;;;10327187;28;95370;-62
2023/07/24 10:40:40;;;;;;;;;;;22.60;66.00;;;;;;10328115;28;94518;-62
2023/07/24 10:45:47;;;;;;;;;;;22.70;65.70;;;;;;10324046;28;96467;-62
2023/07/24 10:50:49;;;;;;;;;;;22.80;64.90;;;;;;10326390;28;94589;-62
2023/07/24 10:55:55;;;;;;;;;;;22.80;65.10;;;;;;10327285;28;93707;-63
2023/07/24 11:00:58;;;;;;;;;;;22.80;64.90;;;;;;10326562;28;94234;-62
2023/07/24 11:06:01;;;;;;;;;;;22.90;64.80;;;;;;10327097;28;93117;-62
2023/07/24 11:11:04;;;;;;;;;;;22.90;64.50;;;;;;10326693;28;93499;-63
2023/07/24 11:16:07;;;;;;;;;;;22.90;64.30;;;;;;10326396;28;94492;-63
2023/07/24 11:21:09;;;;;;;;;;;22.90;64.10;;;;;;10327228;28;93907;-63
2023/07/24 11:26:11;;;;;;;;;;;22.90;64.00;;;;;;10324946;28;94322;-63
2023/07/24 11:31:14;;;;;;;;;;;22.90;63.90;;;;;;10307850;28;93950;-63
2023/07/24 11:36:16;;;;;;;;;;;22.90;63.90;;;;;;10327612;28;97167;-63
2023/07/24 11:41:18;;;;;;;;;;;22.90;63.70;;;;;;10332824;28;93957;-63
2023/07/24 11:46:24;;;;;;;;;;;22.90;63.70;;;;;;10332981;28;93395;-63
2023/07/24 11:51:26;;;;;;;;;;;22.90;63.60;;;;;;10331952;28;93675;-63
2023/07/24 11:56:30;;;;;;;;;;;22.90;63.60;;;;;;10313073;28;94494;-63
2023/07/24 12:01:32;;;;;;;;;;;22.90;63.60;;;;;;10332864;28;94430;-63
2023/07/24 12:06:35;;;;;;;;;;;22.90;63.50;;;;;;10333382;28;94686;-63
2023/07/24 12:11:43;;;;;;;;;;;22.90;63.40;;;;;;10314612;28;92708;-63
2023/07/24 12:16:47;;;;;;;;;;;22.90;63.40;;;;;;10332236;28;93447;-63
2023/07/24 12:21:49;;;;;;;;;;;22.90;63.40;;;;;;10332803;28;94615;-64
2023/07/24 12:26:51;;;;;;;;;;;22.90;63.40;;;;;;10330154;28;96862;-63
2023/07/24 12:31:52;;;;;;;;;;;22.80;63.30;;;;;;10331028;28;93479;-63
2023/07/24 12:36:54;;;;;;;;;;;22.80;63.30;;;;;;10331484;28;93774;-64
2023/07/24 12:41:56;;;;;;;;;;;22.80;63.40;;;;;;10331232;28;94577;-62
2023/07/24 12:46:58;;;;;;;;;;;22.80;63.50;;;;;;10295908;28;93494;-63
2023/07/24 12:52:00;;;;;;;;;;;22.80;63.50;;;;;;10312460;28;93405;-62
2023/07/24 12:57:02;;;;;;;;;;;22.80;63.60;;;;;;10313932;28;94607;-63
2023/07/24 13:02:04;;;;;;;;;;;22.80;64.50;;;;;;10329623;28;92705;-61
2023/07/24 13:07:06;;;;;;;;;;;22.80;63.60;;;;;;10329504;28;93660;-61
2023/07/24 13:12:08;;;;;;;;;;;22.80;63.90;;;;;;10330178;28;93748;-60
2023/07/24 13:17:10;;;;;;;;;;;22.80;64.90;;;;;;10327192;28;95880;-61
2023/07/24 13:22:12;;;;;;;;;;;22.80;64.10;;;;;;10329823;28;93497;-61
2023/07/24 13:27:14;;;;;;;;;;;22.80;64.10;;;;;;10312150;28;94432;-60
2023/07/24 13:32:16;;;;;;;;;;;22.80;64.20;;;;;;10329703;28;94719;-60
2023/07/24 13:37:18;;;;;;;;;;;22.80;64.90;;;;;;10328846;28;93484;-60
2023/07/24 13:42:19;;;;;;;;;;;22.80;64.90;;;;;;10328989;28;93501;-61
2023/07/24 13:47:21;;;;;;;;;;;22.80;64.80;;;;;;10328523;28;93545;-61
2023/07/24 13:52:23;;;;;;;;;;;22.80;64.70;;;;;;10328668;28;92785;-61
2023/07/24 13:57:25;;;;;;;;;;;22.90;64.40;;;;;;10329366;28;94601;-62
2023/07/24 14:02:27;;;;;;;;;;;22.90;64.40;;;;;;10329352;28;93286;-61
2023/07/24 14:07:29;;;;;;;;;;;22.90;64.30;;;;;;10325966;28;96047;-62
2023/07/24 14:12:30;;;;;;;;;;;22.80;64.30;;;;;;10311092;28;93111;-61
2023/07/24 14:17:32;;;;;;;;;;;22.80;64.10;;;;;;10310372;28;93853;-60
2023/07/24 14:22:34;;;;;;;;;;;22.90;64.20;;;;;;10327804;28;94485;-60
2023/07/24 14:27:36;;;;;;;;;;;22.90;64.10;;;;;;10329226;28;93234;-60
2023/07/24 14:32:38;;;;;;;;;;;22.90;64.00;;;;;;10328425;28;93423;-61
2023/07/24 14:37:39;;;;;;;;;;;22.90;64.00;;;;;;10327229;28;94432;-61
2023/07/24 14:42:41;;;;;;;;;;;22.80;63.90;;;;;;10327943;28;92747;-61
2023/07/24 14:47:43;;;;;;;;;;;22.80;63.90;;;;;;10327089;28;93814;-62
2023/07/24 14:52:45;;;;;;;;;;;22.80;64.00;;;;;;10328179;28;94631;-63
2023/07/24 14:57:47;;;;;;;;;;;22.90;64.20;;;;;;10320273;28;97714;-63
2023/07/24 15:02:48;;;;;;;;;;;22.80;62.30;;;;;;10327214;28;94751;-62
2023/07/24 15:07:50;;;;;;;;;;;22.60;61.60;;;;;;10328021;28;94603;-61
2023/07/24 15:12:52;;;;;;;;;;;22.50;61.90;;;;;;10332488;28;92656;-62
2023/07/24 15:17:55;;;;;;;;;;;22.50;62.20;;;;;;10333189;28;93454;-61
2023/07/24 15:22:57;;;;;;;;;;;22.50;62.30;;;;;;10333418;28;92885;-61
2023/07/24 15:27:59;;;;;;;;;;;22.50;62.20;;;;;;10333504;28;93340;-61
2023/07/24 15:33:00;;;;;;;;;;;22.50;62.30;;;;;;10334421;28;92459;-62
2023/07/24 15:38:04;;;;;;;;;;;22.60;63.10;;;;;;10332861;28;94846;-62
2023/07/24 15:43:06;;;;;;;;;;;22.60;63.20;;;;;;10350678;28;93477;-62
2023/07/24 15:48:08;;;;;;;;;;;22.60;63.10;;;;;;10332008;28;95471;-63
2023/07/24 15:53:09;;;;;;;;;;;22.60;63.10;;;;;;10334455;28;93496;-63
2023/07/24 15:58:11;;;;;;;;;;;22.60;63.10;;;;;;10316342;28;93541;-62
2023/07/24 16:03:13;;;;;;;;;;;22.70;63.20;;;;;;10347818;28;93475;-62
2023/07/24 16:08:15;;;;;;;;;;;22.70;63.80;;;;;;10333679;28;93670;-63
2023/07/24 16:13:17;;;;;;;;;;;22.80;63.60;;;;;;10332159;28;93393;-63
2023/07/24 16:18:22;;;;;;;;;;;22.80;63.70;;;;;;10331429;28;94428;-63
2023/07/24 16:23:24;;;;;;;;;;;22.90;63.50;;;;;;10332689;28;93853;-62
2023/07/24 16:28:26;;;;;;;;;;;22.90;63.40;;;;;;10314230;28;93800;-62
2023/07/24 16:33:28;;;;;;;;;;;22.90;63.20;;;;;;10332367;28;94870;-62
2023/07/24 16:38:32;;;;;;;;;;;22.90;63.20;;;;;;10343389;28;96377;-62
2023/07/24 16:43:33;;;;;;;;;;;22.80;63.20;;;;;;10330991;28;93443;-63
2023/07/24 16:48:41;;;;;;;;;;;22.80;63.10;;;;;;10330352;28;94472;-64
2023/07/24 16:53:43;;;;;;;;;;;22.80;62.90;;;;;;10324904;28;94699;-62
2023/07/24 16:58:44;;;;;;;;;;;22.80;62.70;;;;;;10311389;28;93710;-62
2023/07/24 17:03:46;;;;;;;;;;;22.80;62.50;;;;;;10330845;28;94695;-61
2023/07/24 17:08:48;;;;;;;;;;;22.80;62.40;;;;;;10330196;28;92933;-60
2023/07/24 17:13:49;;;;;;;;;;;22.80;62.20;;;;;;10331235;28;92400;-59
2023/07/24 17:18:55;;;;;;;;;;;22.80;62.10;;;;;;10330000;28;93579;-63
2023/07/24 17:23:57;;;;;;;;;;;22.80;62.00;;;;;;10331096;28;93936;-63
2023/07/24 17:29:02;;;;;;;;;;;22.80;61.80;;;;;;10326713;28;96898;-62
2023/07/24 17:34:04;;;;;;;;;;;22.80;61.80;;;;;;10328841;28;94636;-61
2023/07/24 17:39:05;;;;;;;;;;;22.80;61.60;;;;;;10345125;28;94771;-62
2023/07/24 17:44:07;;;;;;;;;;;22.70;61.50;;;;;;10329676;28;94047;-62
2023/07/24 17:49:09;;;;;;;;;;;22.70;61.40;;;;;;10309989;28;93542;-62
2023/07/24 17:54:11;;;;;;;;;;;22.70;61.40;;;;;;10329994;28;94800;-61
2023/07/24 17:59:13;;;;;;;;;;;22.70;61.40;;;;;;10344363;28;93321;-62
2023/07/24 18:04:15;;;;;;;;;;;22.60;61.30;;;;;;10328830;28;93015;-61
2023/07/24 18:09:17;;;;;;;;;;;22.60;61.30;;;;;;10329539;28;94498;-62
2023/07/24 18:14:22;;;;;;;;;;;22.60;61.30;;;;;;10329509;28;93572;-62
2023/07/24 18:19:24;;;;;;;;;;;22.60;61.20;;;;;;10326033;28;95808;-63
2023/07/24 18:24:25;;;;;;;;;;;22.60;61.10;;;;;;10343805;28;93220;-63
2023/07/24 18:29:27;;;;;;;;;;;22.60;61.20;;;;;;10343482;28;94487;-62
2023/07/24 18:34:29;;;;;;;;;;;22.50;61.30;;;;;;10328821;28;93249;-63
2023/07/24 18:39:31;;;;;;;;;;;22.50;61.30;;;;;;10328925;28;94518;-63
2023/07/24 18:44:33;;;;;;;;;;;22.50;61.30;;;;;;10328568;28;93342;-63
2023/07/24 18:49:34;;;;;;;;;;;22.50;61.40;;;;;;10327562;28;94455;-63
2023/07/24 18:54:36;;;;;;;;;;;22.50;61.30;;;;;;10329348;28;92312;-62
2023/07/24 18:59:37;;;;;;;;;;;22.50;61.20;;;;;;10328002;28;93431;-61
2023/07/24 19:04:39;;;;;;;;;;;22.50;61.20;;;;;;10328969;28;93749;-62
2023/07/24 19:09:41;;;;;;;;;;;22.50;61.20;;;;;;10327108;28;96729;-62
2023/07/24 19:14:43;;;;;;;;;;;22.40;61.20;;;;;;10327924;28;94445;-62
2023/07/24 19:19:44;;;;;;;;;;;22.40;61.10;;;;;;10326938;28;94461;-63
2023/07/24 19:24:46;;;;;;;;;;;22.40;61.00;;;;;;10327502;28;93742;-63
2023/07/24 19:29:48;;;;;;;;;;;22.40;62.00;;;;;;10325917;28;94466;-63
2023/07/24 19:34:50;;;;;;;;;;;22.40;61.10;;;;;;10325763;28;93464;-63
2023/07/24 19:39:52;;;;;;;;;;;22.40;61.10;;;;;;10325769;28;93083;-63
2023/07/24 19:44:54;;;;;;;;;;;22.40;61.10;;;;;;10326812;28;92660;-63
2023/07/24 19:49:55;;;;;;;;;;;22.30;61.00;;;;;;10324327;28;93916;-62
2023/07/24 19:54:57;;;;;;;;;;;22.30;61.10;;;;;;10326151;28;94224;-64
2023/07/24 19:59:59;;;;;;;;;;;22.30;61.00;;;;;;10329714;28;96375;-63
2023/07/24 20:05:01;;;;;;;;;;;22.30;61.00;;;;;;10332822;28;92891;-62
2023/07/24 20:10:03;;;;;;;;;;;22.30;61.00;;;;;;10332409;28;93807;-63
2023/07/24 20:15:05;;;;;;;;;;;22.30;61.10;;;;;;10313598;28;94708;-64
2023/07/24 20:20:07;;;;;;;;;;;22.30;61.10;;;;;;10315388;28;94472;-63
2023/07/24 20:25:09;;;;;;;;;;;22.30;61.00;;;;;;10347121;28;93504;-64
2023/07/24 20:30:10;;;;;;;;;;;22.30;61.00;;;;;;10314653;28;94553;-64
2023/07/24 20:35:12;;;;;;;;;;;22.30;61.00;;;;;;10332634;28;91970;-64
2023/07/24 20:40:14;;;;;;;;;;;22.30;60.90;;;;;;10330479;28;93420;-64
2023/07/24 20:45:16;;;;;;;;;;;22.30;61.00;;;;;;10331090;28;94019;-63
2023/07/24 20:50:17;;;;;;;;;;;22.40;61.00;;;;;;10328502;28;96891;-63
2023/07/24 20:55:19;;;;;;;;;;;22.30;60.90;;;;;;10330935;28;93670;-64
2023/07/24 21:00:21;;;;;;;;;;;22.30;60.80;;;;;;10332128;28;94483;-64
2023/07/24 21:05:23;;;;;;;;;;;22.30;60.90;;;;;;10331219;28;92832;-64
2023/07/24 21:10:25;;;;;;;;;;;22.30;60.90;;;;;;10330033;28;93027;-63
2023/07/24 21:15:27;;;;;;;;;;;22.40;61.00;;;;;;10331710;28;93297;-63
2023/07/24 21:20:28;;;;;;;;;;;22.40;61.00;;;;;;10312929;28;93491;-64
2023/07/24 21:25:30;;;;;;;;;;;22.30;60.90;;;;;;10331376;28;93897;-63
2023/07/24 21:30:32;;;;;;;;;;;22.40;61.00;;;;;;10331132;28;93937;-63
2023/07/24 21:35:34;;;;;;;;;;;22.40;61.00;;;;;;10331234;28;94604;-64
2023/07/24 21:40:35;;;;;;;;;;;22.40;61.00;;;;;;10327225;28;96820;-64
2023/07/24 21:45:37;;;;;;;;;;;22.40;61.10;;;;;;10329528;28;93414;-64
2023/07/24 21:50:42;;;;;;;;;;;22.40;61.00;;;;;;10330083;28;93428;-63
2023/07/24 21:55:44;;;;;;;;;;;22.40;61.10;;;;;;10329499;28;93825;-63
2023/07/24 22:00:46;;;;;;;;;;;22.40;61.00;;;;;;10328820;28;94376;-63
2023/07/24 22:05:48;;;;;;;;;;;22.40;61.20;;;;;;10329501;28;94478;-63
2023/07/24 22:10:49;;;;;;;;;;;22.40;60.80;;;;;;10330151;28;94505;-63
2023/07/24 22:15:51;;;;;;;;;;;22.40;60.80;;;;;;10323648;28;92723;-63
2023/07/24 22:20:53;;;;;;;;;;;22.40;61.60;;;;;;10328625;28;94742;-63
2023/07/24 22:25:55;;;;;;;;;;;22.30;60.30;;;;;;10329458;28;93453;-64
2023/07/24 22:30:57;;;;;;;;;;;22.30;60.40;;;;;;10327059;28;98416;-63
2023/07/24 22:35:59;;;;;;;;;;;22.30;60.40;;;;;;10328396;28;94920;-63
2023/07/24 22:41:13;;;;;;;;;;;22.30;60.30;;;;;;10328563;28;94074;-63
2023/07/24 22:46:14;;;;;;;;;;;22.30;60.30;;;;;;10329253;28;94415;-63
2023/07/24 22:51:17;;;;;;;;;;;22.30;60.30;;;;;;10327164;28;93505;-64
2023/07/24 22:56:18;;;;;;;;;;;22.20;60.10;;;;;;10326046;28;93461;-63
2023/07/24 23:01:24;;;;;;;;;;;22.30;60.20;;;;;;10327004;28;93440;-64
2023/07/24 23:06:26;;;;;;;;;;;22.20;60.20;;;;;;10310075;28;92418;-64
2023/07/24 23:11:28;;;;;;;;;;;22.20;60.10;;;;;;10309594;28;94470;-65
2023/07/24 23:16:31;;;;;;;;;;;22.20;60.10;;;;;;10309104;28;95845;-62
2023/07/24 23:21:32;;;;;;;;;;;22.20;60.10;;;;;;10324998;28;95235;-62
2023/07/24 23:26:35;;;;;;;;;;;22.20;60.00;;;;;;10327307;28;94436;-63
2023/07/24 23:31:36;;;;;;;;;;;22.20;60.00;;;;;;10329316;28;94469;-62
2023/07/24 23:36:38;;;;;;;;;;;22.20;60.00;;;;;;10333437;28;94435;-63
2023/07/24 23:41:40;;;;;;;;;;;22.20;60.00;;;;;;10316951;28;94445;-62
2023/07/24 23:46:42;;;;;;;;;;;22.20;60.00;;;;;;10335262;28;94393;-62
2023/07/24 23:51:44;;;;;;;;;;;22.20;60.00;;;;;;10315378;28;93529;-63
2023/07/24 23:56:46;;;;;;;;;;;22.20;60.00;;;;;;10335365;28;93643;-64
